Time;durP1;ratioP1;P1;durP2;ratioP2;P2;SDS_P1;SDS_P2;PMS_P1;PMS_P2;Temp;Humidity;BMP_temperature;BMP_pressure;BME280_temperature;BME280_humidity;BME280_pressure;Samples;Min_cycle;Max_cycle;Signal;HPM_P1;HPM_P2
2022/05/02 00:00:07;;;;;;;19.02;17.23;;;13.70;99.90;;;;;;5037609;28;20116;-60
2022/05/02 00:02:34;;;;;;;19.38;17.38;;;13.60;99.90;;;;;;5036536;28;20078;-60
2022/05/02 00:05:00;;;;;;;19.75;17.92;;;13.70;99.90;;;;;;5035127;28;20036;-60
2022/05/02 00:07:26;;;;;;;19.83;17.85;;;13.70;99.90;;;;;;5037282;28;20064;-60
2022/05/02 00:09:52;;;;;;;20.35;18.27;;;13.60;99.90;;;;;;5037360;28;20041;-61
2022/05/02 00:12:17;;;;;;;21.15;19.08;;;13.70;99.90;;;;;;5036057;28;20037;-60
2022/05/02 00:14:43;;;;;;;21.10;18.95;;;13.60;99.90;;;;;;5037343;28;20017;-61
2022/05/02 00:17:09;;;;;;;20.63;18.48;;;13.50;99.90;;;;;;5036117;28;20868;-61
2022/05/02 00:19:35;;;;;;;23.40;20.88;;;13.50;99.90;;;;;;5034891;28;20021;-61
2022/05/02 00:22:01;;;;;;;23.92;20.00;;;13.50;99.90;;;;;;5039439;28;20029;-60
2022/05/02 00:24:27;;;;;;;24.58;20.27;;;13.50;99.90;;;;;;5037411;28;20029;-60
2022/05/02 00:26:52;;;;;;;21.95;19.77;;;13.50;99.90;;;;;;5037305;28;20394;-60
2022/05/02 00:29:18;;;;;;;21.90;19.70;;;13.40;99.90;;;;;;5036590;28;20025;-60
2022/05/02 00:31:45;;;;;;;22.67;20.27;;;13.50;99.90;;;;;;5033590;28;20498;-61
2022/05/02 00:34:12;;;;;;;22.55;20.17;;;13.40;99.90;;;;;;5039340;28;20076;-60
2022/05/02 00:36:38;;;;;;;21.83;19.83;;;13.50;99.90;;;;;;5037202;28;20079;-59
2022/05/02 00:39:04;;;;;;;21.95;19.75;;;13.40;99.90;;;;;;5037074;28;20052;-60
2022/05/02 00:41:30;;;;;;;21.27;19.10;;;13.40;99.90;;;;;;5035890;28;20045;-61
2022/05/02 00:43:56;;;;;;;22.10;19.80;;;13.40;99.90;;;;;;5033292;28;20025;-60
2022/05/02 00:46:24;;;;;;;23.30;20.90;;;13.40;99.90;;;;;;5037770;28;20072;-60
2022/05/02 00:48:51;;;;;;;23.33;21.02;;;13.40;99.90;;;;;;5036755;28;20449;-60
2022/05/02 00:51:17;;;;;;;24.00;21.60;;;13.40;99.90;;;;;;5035109;28;20056;-60
2022/05/02 00:53:46;;;;;;;23.65;21.38;;;13.30;99.90;;;;;;5036951;28;20030;-61
2022/05/02 00:56:12;;;;;;;24.08;21.80;;;13.30;99.90;;;;;;5035546;28;20075;-61
2022/05/02 00:58:38;;;;;;;24.27;22.02;;;13.40;99.90;;;;;;5033277;28;20025;-60
2022/05/02 01:01:05;;;;;;;24.85;22.50;;;13.40;99.90;;;;;;5038620;28;20025;-61
2022/05/02 01:03:33;;;;;;;22.67;20.05;;;13.30;99.90;;;;;;5036745;28;20057;-60
2022/05/02 01:08:43;;;;;;;25.88;23.20;;;13.30;99.90;;;;;;5036632;28;20084;-60
2022/05/02 01:11:09;;;;;;;24.10;21.63;;;13.30;99.90;;;;;;5034948;28;20825;-60
2022/05/02 01:13:43;;;;;;;25.55;22.65;;;13.30;99.90;;;;;;5033548;28;20033;-61
2022/05/02 01:16:20;;;;;;;23.90;21.27;;;13.20;99.90;;;;;;5038569;28;20033;-61
2022/05/02 01:18:47;;;;;;;26.55;23.60;;;13.20;99.90;;;;;;5036975;28;20022;-60
2022/05/02 01:21:16;;;;;;;24.23;22.13;;;13.20;99.90;;;;;;5036599;28;20033;-60
2022/05/02 01:23:46;;;;;;;26.92;23.70;;;13.20;99.90;;;;;;5036472;28;21735;-61
2022/05/02 01:26:13;;;;;;;27.30;23.98;;;13.20;99.90;;;;;;5033743;28;20049;-60
2022/05/02 01:28:46;;;;;;;25.02;22.58;;;13.20;99.90;;;;;;5033065;28;20509;-61
2022/05/02 01:31:12;;;;;;;;;;;13.20;99.90;;;;;;5038327;28;20045;-60
2022/05/02 01:33:38;;;;;;;26.17;23.40;;;13.20;99.90;;;;;;5034974;28;20385;-61
2022/05/02 01:36:04;;;;;;;27.67;24.75;;;13.20;99.90;;;;;;5036187;28;20125;-60
2022/05/02 01:38:30;;;;;;;25.52;23.13;;;13.20;99.90;;;;;;5036165;28;20045;-60
2022/05/02 01:40:56;;;;;;;26.88;23.67;;;13.20;99.90;;;;;;5032439;28;20033;-61
2022/05/02 01:43:21;;;;;;;26.95;24.38;;;13.20;99.90;;;;;;5036094;28;20079;-61
2022/05/02 01:45:47;;;;;;;26.15;23.45;;;13.10;99.90;;;;;;5035444;28;20033;-60
2022/05/02 01:48:13;;;;;;;26.90;24.33;;;13.10;99.90;;;;;;5036136;28;20079;-60
2022/05/02 01:50:39;;;;;;;27.35;24.67;;;13.20;99.90;;;;;;5035758;28;20548;-60
2022/05/02 01:53:05;;;;;;;27.88;24.80;;;13.20;99.90;;;;;;5033632;28;20013;-61
2022/05/02 01:55:30;;;;;;;27.88;25.23;;;13.20;99.90;;;;;;5034061;28;20398;-61
2022/05/02 01:57:56;;;;;;;25.92;23.55;;;13.10;99.90;;;;;;5036908;28;20028;-61
2022/05/02 02:00:22;;;;;;;27.27;24.63;;;13.20;99.90;;;;;;5034221;28;20037;-60
2022/05/02 02:02:48;;;;;;;25.92;23.17;;;13.10;99.90;;;;;;5035241;28;20037;-60
2022/05/02 02:07:57;;;;;;;26.20;23.63;;;13.10;99.90;;;;;;5016418;28;20029;-61
2022/05/02 02:10:23;;;;;;;28.40;25.80;;;13.10;99.90;;;;;;5035672;28;20037;-61
2022/05/02 02:12:49;;;;;;;27.60;24.67;;;13.10;99.90;;;;;;5035958;28;20022;-61
2022/05/02 02:15:15;;;;;;;28.50;25.50;;;13.10;99.90;;;;;;5035333;28;20104;-60
2022/05/02 02:17:41;;;;;;;27.77;25.08;;;13.10;99.90;;;;;;5035617;28;20029;-60
2022/05/02 02:20:08;;;;;;;30.00;26.38;;;13.00;99.90;;;;;;5033100;28;20029;-61
2022/05/02 02:22:34;;;;;;;29.85;26.83;;;13.00;99.90;;;;;;5031290;28;20026;-60
2022/05/02 02:25:00;;;;;;;27.63;24.83;;;13.00;99.90;;;;;;5036843;28;20109;-60
2022/05/02 02:27:27;;;;;;;28.25;25.40;;;13.00;99.90;;;;;;5035375;28;20036;-61
2022/05/02 02:29:53;;;;;;;28.00;25.17;;;13.10;99.90;;;;;;5035222;28;20057;-60
2022/05/02 02:32:18;;;;;;;31.73;27.10;;;13.00;99.90;;;;;;5034527;28;20045;-60
2022/05/02 02:34:44;;;;;;;30.35;27.40;;;13.00;99.90;;;;;;5030730;28;20057;-61
2022/05/02 02:37:10;;;;;;;29.00;25.73;;;12.90;99.90;;;;;;5037179;28;20100;-59
2022/05/02 02:39:35;;;;;;;31.05;27.85;;;12.90;99.90;;;;;;5032931;28;20095;-61
2022/05/02 02:42:01;;;;;;;28.60;25.80;;;12.90;99.90;;;;;;5034910;28;20518;-60
2022/05/02 02:44:27;;;;;;;30.52;27.42;;;12.80;99.90;;;;;;5033496;28;20547;-60
2022/05/02 02:46:53;;;;;;;31.02;27.77;;;12.90;99.90;;;;;;5029567;28;20029;-60
2022/05/02 02:49:18;;;;;;;29.67;26.65;;;12.80;99.90;;;;;;5036231;28;20029;-60
2022/05/02 02:51:44;;;;;;;29.20;26.33;;;12.90;99.90;;;;;;5033479;28;20090;-60
2022/05/02 02:54:10;;;;;;;30.88;27.92;;;12.80;99.90;;;;;;5034681;28;20037;-61
2022/05/02 02:56:35;;;;;;;32.53;29.23;;;12.80;99.90;;;;;;5034742;28;20029;-60
2022/05/02 02:59:01;;;;;;;33.17;29.77;;;12.80;99.90;;;;;;5032128;28;20037;-61
2022/05/02 03:01:28;;;;;;;32.47;29.10;;;12.70;99.90;;;;;;5034034;28;20429;-60
2022/05/02 03:03:54;;;;;;;34.03;30.67;;;12.60;99.90;;;;;;5036104;28;20108;-60
2022/05/02 03:06:20;;;;;;;33.83;30.55;;;12.80;99.90;;;;;;5034538;28;20494;-60
2022/05/02 03:08:47;;;;;;;33.40;29.90;;;12.80;99.90;;;;;;5034236;28;20036;-61
2022/05/02 03:11:13;;;;;;;36.45;31.00;;;12.90;99.90;;;;;;5032243;28;20079;-61
2022/05/02 03:13:39;;;;;;;33.58;30.27;;;12.90;99.90;;;;;;5031527;28;24669;-61
2022/05/02 03:16:05;;;;;;;33.80;30.20;;;12.90;99.90;;;;;;5036442;28;20049;-60
2022/05/02 03:18:31;;;;;;;34.03;30.63;;;12.80;99.90;;;;;;5033081;28;20482;-60
2022/05/02 03:20:57;;;;;;;33.90;30.50;;;12.80;99.90;;;;;;5034213;28;20037;-60
2022/05/02 03:23:23;;;;;;;34.03;30.60;;;12.70;99.90;;;;;;5032650;28;20029;-60
2022/05/02 03:25:49;;;;;;;33.25;29.80;;;12.70;99.90;;;;;;5029142;28;20401;-60
2022/05/02 03:28:15;;;;;;;36.08;32.47;;;12.60;99.90;;;;;;5036228;28;20017;-60
2022/05/02 03:30:42;;;;;;;33.88;30.40;;;12.60;99.90;;;;;;5034121;28;20034;-61
2022/05/02 03:33:07;;;;;;;36.33;32.63;;;12.60;99.90;;;;;;5034302;28;20110;-60
2022/05/02 03:35:33;;;;;;;35.15;31.73;;;12.60;99.90;;;;;;5034456;28;20056;-60
2022/05/02 03:37:59;;;;;;;35.20;31.60;;;12.60;99.90;;;;;;5030685;28;20026;-60
2022/05/02 03:40:25;;;;;;;34.97;31.60;;;12.60;99.90;;;;;;5034096;28;20034;-60
2022/05/02 03:42:51;;;;;;;36.10;32.35;;;12.60;99.90;;;;;;5034948;28;20436;-60
2022/05/02 03:45:17;;;;;;;37.88;34.05;;;12.60;99.90;;;;;;5034066;28;20116;-60
2022/05/02 03:47:43;;;;;;;36.13;32.67;;;12.50;99.90;;;;;;5034091;28;20098;-61
2022/05/02 03:50:09;;;;;;;37.25;33.53;;;12.60;99.90;;;;;;5032229;28;20029;-64
2022/05/02 03:52:35;;;;;;;38.33;34.33;;;12.50;99.90;;;;;;5031058;28;20437;-60
2022/05/02 03:55:01;;;;;;;37.17;33.45;;;12.60;99.90;;;;;;5036007;28;20025;-60
2022/05/02 03:57:27;;;;;;;37.58;33.95;;;12.60;99.90;;;;;;5033009;28;20056;-60
2022/05/02 03:59:53;;;;;;;33.25;30.05;;;12.50;99.90;;;;;;5033860;28;20021;-60
2022/05/02 04:02:18;;;;;;;37.58;33.88;;;12.50;99.90;;;;;;5032251;28;20501;-60
2022/05/02 04:04:44;;;;;;;39.47;35.25;;;12.70;99.90;;;;;;5029372;28;20036;-60
2022/05/02 04:07:10;;;;;;;35.53;31.95;;;12.70;99.90;;;;;;5034968;28;20036;-59
2022/05/02 04:09:35;;;;;;;35.55;31.83;;;12.70;99.90;;;;;;5034124;28;20521;-60
2022/05/02 04:12:01;;;;;;;36.78;32.75;;;12.80;99.90;;;;;;5033859;28;20025;-60
2022/05/02 04:14:27;;;;;;;35.00;31.63;;;12.80;99.90;;;;;;5033950;28;20501;-60
2022/05/02 04:16:52;;;;;;;37.30;33.30;;;12.80;99.90;;;;;;5028911;28;20112;-60
2022/05/02 04:19:19;;;;;;;35.10;31.50;;;12.80;99.90;;;;;;5035332;28;20057;-60
2022/05/02 04:21:45;;;;;;;35.75;32.28;;;12.80;99.90;;;;;;5033737;28;20042;-61
2022/05/02 04:24:11;;;;;;;36.85;33.05;;;12.80;99.90;;;;;;5033648;28;20029;-60
2022/05/02 04:26:38;;;;;;;38.50;34.53;;;12.80;99.90;;;;;;5034457;28;20036;-61
2022/05/02 04:29:03;;;;;;;36.80;32.90;;;12.80;99.90;;;;;;5035229;28;20020;-59
2022/05/02 04:31:29;;;;;;;39.65;35.65;;;12.70;99.90;;;;;;5036123;28;20033;-60
2022/05/02 04:33:55;;;;;;;38.72;33.75;;;12.60;99.90;;;;;;5038359;28;20405;-60
2022/05/02 04:36:20;;;;;;;38.00;34.10;;;12.60;99.90;;;;;;5035948;28;20030;-60
2022/05/02 04:38:46;;;;;;;41.78;37.38;;;12.60;99.90;;;;;;5036876;28;20076;-60
2022/05/02 04:41:14;;;;;;;41.80;37.45;;;12.60;99.90;;;;;;5034490;28;20044;-60
2022/05/02 04:43:41;;;;;;;43.55;38.83;;;12.60;99.90;;;;;;5033181;28;20022;-60
2022/05/02 04:46:07;;;;;;;39.92;35.88;;;12.60;99.90;;;;;;5038058;28;20030;-60
2022/05/02 04:48:33;;;;;;;36.60;32.97;;;12.60;99.90;;;;;;5037179;28;20032;-60
2022/05/02 04:50:59;;;;;;;37.72;33.53;;;12.60;99.90;;;;;;5036603;28;20490;-60
2022/05/02 04:53:25;;;;;;;35.70;31.95;;;12.70;99.90;;;;;;5036822;28;20029;-60
2022/05/02 04:55:50;;;;;;;36.20;32.40;;;12.60;99.90;;;;;;5032822;28;20087;-60
2022/05/02 04:58:16;;;;;;;36.88;33.00;;;12.70;99.90;;;;;;5038584;28;20018;-61
2022/05/02 05:00:43;;;;;;;40.05;35.85;;;12.80;99.90;;;;;;5036557;28;20056;-60
2022/05/02 05:03:08;;;;;;;39.35;35.35;;;12.80;99.90;;;;;;5037020;28;20117;-60
2022/05/02 05:05:34;;;;;;;40.35;36.05;;;12.70;99.90;;;;;;5036422;28;20193;-61
2022/05/02 05:08:00;;;;;;;40.25;36.25;;;12.70;99.90;;;;;;5033861;28;20026;-60
2022/05/02 05:10:26;;;;;;;40.60;35.72;;;12.70;99.90;;;;;;5036324;28;20029;-60
2022/05/02 05:13:01;;;;;;;37.40;33.78;;;12.60;99.90;;;;;;5037553;28;20116;-60
2022/05/02 05:18:49;;;;;;;37.28;33.47;;;12.60;99.90;;;;;;5036703;28;20509;-60
2022/05/02 05:21:20;;;;;;;37.53;33.35;;;12.70;99.90;;;;;;5035118;28;20498;-61
2022/05/02 05:24:04;;;;;;;36.05;32.45;;;12.70;99.90;;;;;;5034773;28;20100;-60
2022/05/02 05:26:54;;;;;;;36.55;32.58;;;12.80;99.90;;;;;;5036758;28;20520;-60
2022/05/02 05:29:35;;;;;;;38.13;33.83;;;12.80;99.90;;;;;;5036467;28;20118;-60
2022/05/02 05:32:38;;;;;;;36.38;32.72;;;12.80;99.90;;;;;;5019493;28;20041;-60
2022/05/02 05:35:06;;;;;;;33.70;30.25;;;12.80;99.90;;;;;;5020350;28;20488;-61
2022/05/02 05:37:55;;;;;;;36.75;32.80;;;12.70;99.90;;;;;;5033742;28;20043;-60
2022/05/02 05:40:28;;;;;;;35.85;31.98;;;12.80;99.90;;;;;;5045355;28;20053;-60
2022/05/02 05:43:16;;;;;;;36.17;32.40;;;12.80;99.90;;;;;;5037173;28;20033;-60
2022/05/02 05:46:16;;;;;;;33.42;30.20;;;12.90;99.90;;;;;;5035770;28;20390;-60
2022/05/02 05:48:52;;;;;;;36.58;32.50;;;12.90;99.90;;;;;;5035588;28;20037;-60
2022/05/02 05:51:33;;;;;;;35.95;32.33;;;12.90;99.90;;;;;;5035866;28;20083;-60
2022/05/02 05:54:23;;;;;;;35.33;31.73;;;13.00;99.90;;;;;;5035777;28;20030;-60
2022/05/02 05:57:07;;;;;;;35.28;31.23;;;12.90;99.90;;;;;;5035750;28;20052;-60
2022/05/02 05:59:44;;;;;;;37.20;33.42;;;12.90;99.90;;;;;;5034288;28;20036;-60
2022/05/02 06:02:23;;;;;;;33.75;30.55;;;13.00;99.90;;;;;;5032390;28;20413;-60
2022/05/02 06:04:50;;;;;;;35.08;31.50;;;13.00;99.90;;;;;;5015999;28;21106;-61
2022/05/02 06:07:21;;;;;;;36.92;33.13;;;13.00;99.90;;;;;;5037228;28;20104;-59
2022/05/02 06:09:48;;;;;;;36.75;32.22;;;13.10;99.90;;;;;;5034485;28;20037;-60
2022/05/02 06:12:15;;;;;;;33.80;30.25;;;13.20;99.90;;;;;;5035554;28;20021;-60
2022/05/02 06:20:20;;;;;;;31.90;28.90;;;13.50;99.90;;;;;;5035354;28;20032;-60
2022/05/02 06:22:47;;;;;;;31.25;28.05;;;13.70;99.90;;;;;;5030981;28;20414;-59
2022/05/02 06:25:19;;;;;;;28.00;25.15;;;13.80;99.90;;;;;;5037193;28;20112;-60
2022/05/02 06:27:47;;;;;;;26.02;23.45;;;14.00;99.90;;;;;;5035401;28;20029;-60
2022/05/02 06:30:14;;;;;;;27.55;24.98;;;14.20;99.90;;;;;;5035359;28;20021;-60
2022/05/02 06:32:43;;;;;;;27.05;24.42;;;14.30;99.90;;;;;;5033317;28;20033;-60
2022/05/02 06:35:08;;;;;;;28.30;25.17;;;14.20;99.90;;;;;;5033412;28;20017;-60
2022/05/02 06:37:41;;;;;;;26.00;23.42;;;14.30;99.90;;;;;;5032989;28;20045;-59
2022/05/02 06:40:27;;;;;;;25.60;23.10;;;14.50;99.90;;;;;;5035923;28;20049;-60
2022/05/02 06:43:14;;;;;;;24.38;21.80;;;14.60;99.90;;;;;;5035847;28;20123;-60
2022/05/02 06:45:42;;;;;;;24.30;21.92;;;14.80;99.90;;;;;;5034592;28;20048;-60
2022/05/02 06:48:20;;;;;;;23.02;20.40;;;14.90;99.90;;;;;;5034710;28;20057;-60
2022/05/02 06:50:53;;;;;;;22.75;18.02;;;15.10;99.90;;;;;;5034428;28;20429;-60
2022/05/02 06:53:30;;;;;;;20.40;18.40;;;15.60;99.90;;;;;;5034410;28;20021;-59
2022/05/02 06:56:48;;;;;;;18.83;16.92;;;16.00;99.90;;;;;;5016948;28;20036;-60
2022/05/02 06:59:32;;;;;;;19.60;17.65;;;16.10;99.90;;;;;;5020843;28;20037;-60
2022/05/02 07:02:08;;;;;;;21.00;18.13;;;15.70;99.90;;;;;;5030170;28;20045;-60
2022/05/02 07:04:44;;;;;;;17.75;15.85;;;15.70;99.90;;;;;;5031424;28;20498;-60
2022/05/02 07:07:44;;;;;;;18.17;16.08;;;15.80;99.90;;;;;;5034222;28;20038;-59
2022/05/02 07:10:25;;;;;;;18.85;16.73;;;15.80;99.90;;;;;;5034128;28;20047;-59
2022/05/02 07:13:21;;;;;;;16.88;15.15;;;15.70;99.90;;;;;;5033825;28;20037;-60
2022/05/02 07:16:02;;;;;;;16.10;13.68;;;15.80;99.90;;;;;;5033440;28;20040;-60
2022/05/02 07:18:38;;;;;;;15.70;14.10;;;16.20;99.90;;;;;;5034026;28;20056;-61
2022/05/02 07:21:13;;;;;;;17.05;13.23;;;16.30;99.90;;;;;;5033640;28;20029;-61
2022/05/02 07:24:07;;;;;;;13.88;12.52;;;16.40;99.90;;;;;;5033445;28;20494;-60
2022/05/02 07:26:36;;;;;;;13.40;11.18;;;16.70;99.90;;;;;;5033316;28;20216;-60
2022/05/02 07:29:04;;;;;;;13.40;10.73;;;17.10;99.90;;;;;;5030265;28;20048;-60
2022/05/02 07:31:31;;;;;;;12.52;10.13;;;17.40;99.90;;;;;;5032801;28;20030;-59
2022/05/02 07:33:58;;;;;;;12.40;10.43;;;17.60;99.90;;;;;;5035590;28;20108;-59
2022/05/02 07:36:25;;;;;;;10.65;9.50;;;17.80;99.90;;;;;;5034072;28;20048;-60
2022/05/02 07:39:01;;;;;;;14.50;9.30;;;18.00;99.90;;;;;;5034295;28;20050;-60
2022/05/02 07:41:27;;;;;;;10.98;8.68;;;17.60;99.90;;;;;;5033859;28;20506;-59
2022/05/02 07:44:02;;;;;;;12.43;8.85;;;17.70;99.90;;;;;;5029826;28;20034;-60
2022/05/02 07:46:35;;;;;;;11.15;8.00;;;18.00;99.90;;;;;;5033678;28;20044;-60
2022/05/02 07:49:03;;;;;;;8.82;7.88;;;18.30;99.90;;;;;;5034130;28;20067;-59
2022/05/02 07:51:30;;;;;;;9.55;8.30;;;18.80;99.90;;;;;;5034057;28;20046;-58
2022/05/02 07:53:58;;;;;;;10.50;7.28;;;19.30;99.90;;;;;;5033830;28;20032;-60
2022/05/02 07:56:27;;;;;;;9.57;6.90;;;19.50;99.90;;;;;;5032653;28;20054;-59
2022/05/02 07:58:54;;;;;;;8.30;6.60;;;19.80;99.90;;;;;;5028202;28;20025;-59
2022/05/02 08:01:21;;;;;;;7.95;6.40;;;18.10;99.90;;;;;;5035164;28;20041;-58
2022/05/02 08:03:47;;;;;;;9.70;6.65;;;18.50;99.90;;;;;;5036678;28;20617;-58
2022/05/02 08:06:28;;;;;;;7.32;5.57;;;18.80;99.90;;;;;;5037963;28;20111;-59
2022/05/02 08:09:35;;;;;;;12.23;5.88;;;19.70;99.90;;;;;;5036539;28;20045;-58
2022/05/02 08:12:24;;;;;;;9.63;5.80;;;20.30;99.90;;;;;;5037320;28;20514;-60
2022/05/02 08:15:01;;;;;;;7.75;5.60;;;20.70;99.90;;;;;;5036728;28;20049;-60
2022/05/02 08:17:49;;;;;;;8.00;5.60;;;19.90;99.90;;;;;;5037251;28;20036;-59
2022/05/02 08:20:42;;;;;;;7.30;5.47;;;20.30;99.90;;;;;;5036575;28;20024;-57
2022/05/02 08:29:30;;;;;;;5.63;4.75;;;23.20;99.90;;;;;;5023739;28;20121;-59
2022/05/02 08:32:03;;;;;;;7.40;4.70;;;;;;;;;;5019176;28;20040;-60
2022/05/02 08:34:38;;;;;;;12.90;5.22;;;24.40;99.90;;;;;;5036325;28;20028;-59
2022/05/02 08:37:34;;;;;;;6.97;5.15;;;23.40;99.90;;;;;;5037671;28;20037;-59
2022/05/02 08:40:22;;;;;;;9.43;4.95;;;22.90;99.90;;;;;;5036691;28;20049;-60
2022/05/02 08:43:25;;;;;;;14.23;5.65;;;22.50;99.90;;;;;;5035707;28;20486;-59
2022/05/02 08:46:20;;;;;;;10.00;5.70;;;22.60;99.90;;;;;;5036387;28;20063;-59
2022/05/02 08:49:41;;;;;;;7.50;5.57;;;22.10;99.90;;;;;;5037162;28;20029;-59
2022/05/02 08:52:11;;;;;;;7.57;5.07;;;21.90;99.90;;;;;;5033184;28;20048;-58
2022/05/02 08:55:07;;;;;;;7.88;5.22;;;21.30;99.90;;;;;;5011625;28;20050;-60
2022/05/02 08:57:54;;;;;;;10.20;5.50;;;21.60;99.90;;;;;;5011637;28;20438;-59
2022/05/02 09:00:31;;;;;;;9.50;5.28;;;22.00;99.90;;;;;;5011954;28;20049;-59
2022/05/02 09:03:24;;;;;;;6.80;4.90;;;22.40;99.90;;;;;;5011846;28;20697;-59
2022/05/02 09:05:58;;;;;;;9.55;5.20;;;21.80;99.90;;;;;;5011526;28;20030;-58
2022/05/02 09:09:01;;;;;;;8.05;5.32;;;21.80;99.90;;;;;;5011549;28;20034;-59
2022/05/02 09:11:48;;;;;;;6.30;4.82;;;21.70;99.90;;;;;;5011321;28;20077;-59
2022/05/02 09:14:20;;;;;;;6.53;4.93;;;21.50;99.90;;;;;;5011495;28;20148;-59
2022/05/02 09:17:19;;;;;;;6.93;4.80;;;22.00;99.90;;;;;;4995234;28;20449;-58
2022/05/02 09:20:23;;;;;;;7.00;4.90;;;22.00;99.90;;;;;;5011261;28;20129;-59
2022/05/02 09:23:29;;;;;;;9.83;5.00;;;21.80;99.90;;;;;;4968553;28;20051;-58
2022/05/02 09:25:58;;;;;;;8.52;4.45;;;22.10;99.90;;;;;;4921176;29;20091;-59
2022/05/02 09:28:48;;;;;;;7.63;4.70;;;22.00;98.30;;;;;;4937427;28;20073;-59
2022/05/02 09:31:20;;;;;;;12.77;6.80;;;23.60;99.90;;;;;;4927572;29;20482;-59
2022/05/02 09:34:19;;;;;;;17.15;8.00;;;22.90;99.90;;;;;;4938095;29;20039;-59
2022/05/02 09:37:04;;;;;;;6.88;4.15;;;23.30;99.40;;;;;;4937991;29;20039;-58
2022/05/02 09:40:07;;;;;;;11.02;6.25;;;23.80;97.10;;;;;;4921701;29;20852;-58
2022/05/02 09:42:54;;;;;;;6.47;4.32;;;24.10;97.30;;;;;;4938000;29;20084;-58
2022/05/02 09:52:15;;;;;;;5.00;2.38;;;22.30;88.40;;;;;;4937815;28;20110;-59
2022/05/02 09:58:00;;;;;;;3.33;2.50;;;22.60;92.10;;;;;;4938082;29;20039;-59
2022/05/02 10:01:10;;;;;;;4.38;2.72;;;22.40;89.00;;;;;;5005133;28;20042;-59
2022/05/02 10:03:40;;;;;;;3.63;2.70;;;22.20;92.30;;;;;;5034262;28;20029;-56
2022/05/02 10:06:16;;;;;;;3.67;2.70;;;22.80;91.60;;;;;;5033807;28;20026;-59
2022/05/02 10:08:49;;;;;;;3.95;2.83;;;22.70;91.40;;;;;;5034560;28;20025;-59
2022/05/02 10:11:31;;;;;;;3.67;2.65;;;23.30;90.30;;;;;;5034371;28;20029;-59
2022/05/02 10:14:08;;;;;;;5.57;2.55;;;22.50;91.10;;;;;;5017011;28;20082;-58
2022/05/02 10:17:16;;;;;;;5.20;2.65;;;22.70;89.10;;;;;;5033539;28;20044;-58
2022/05/02 10:20:00;;;;;;;4.45;2.72;;;22.90;91.10;;;;;;4990022;28;20113;-58
2022/05/02 10:22:31;;;;;;;4.40;2.90;;;23.70;87.00;;;;;;4990860;28;20034;-57
2022/05/02 10:25:27;;;;;;;4.78;2.47;;;23.40;91.00;;;;;;4989620;28;20504;-58
2022/05/02 10:28:17;;;;;;;3.88;2.70;;;23.40;90.10;;;;;;4991096;28;20050;-58
2022/05/02 10:30:50;;;;;;;3.75;2.55;;;25.00;93.90;;;;;;4990575;28;20412;-59
2022/05/02 10:33:41;;;;;;;3.60;2.70;;;24.50;94.70;;;;;;4990208;28;20026;-59
2022/05/02 10:36:09;;;;;;;4.57;3.58;;;24.20;92.30;;;;;;4990449;28;20026;-58
2022/05/02 10:38:51;;;;;;;4.80;3.65;;;23.90;94.00;;;;;;4989164;28;20050;-57
2022/05/02 10:41:23;;;;;;;4.55;3.33;;;23.70;95.20;;;;;;4990291;28;20144;-58
2022/05/02 10:43:53;;;;;;;3.75;3.30;;;22.80;95.90;;;;;;4974937;28;20487;-57
2022/05/02 10:46:21;;;;;;;3.83;3.10;;;23.20;95.70;;;;;;4987111;28;20073;-59
2022/05/02 10:49:00;;;;;;;6.25;3.00;;;23.10;94.50;;;;;;4990277;28;20034;-58
2022/05/02 10:52:01;;;;;;;4.07;3.05;;;22.70;94.90;;;;;;5030694;28;20045;-58
2022/05/02 10:54:42;;;;;;;6.18;3.10;;;22.90;94.50;;;;;;5034295;28;20401;-59
2022/05/02 10:57:34;;;;;;;3.92;2.53;;;22.60;92.80;;;;;;5034709;28;20053;-58
2022/05/02 11:00:09;;;;;;;4.65;2.75;;;22.10;92.20;;;;;;5030798;28;20494;-59
2022/05/02 11:02:49;;;;;;;4.22;2.88;;;23.50;92.40;;;;;;5034421;28;20555;-58
2022/05/02 11:05:36;;;;;;;4.65;2.95;;;23.10;93.90;;;;;;5031672;28;20013;-57
2022/05/02 11:08:11;;;;;;;4.32;2.83;;;23.20;94.20;;;;;;5016900;28;20506;-57
2022/05/02 11:10:47;;;;;;;3.13;2.83;;;22.60;94.00;;;;;;5032290;28;20030;-58
2022/05/02 11:13:39;;;;;;;5.65;2.75;;;22.60;94.40;;;;;;5035862;28;20036;-57
2022/05/02 11:16:24;;;;;;;4.13;3.00;;;22.50;93.80;;;;;;5031060;28;20547;-59
2022/05/02 11:22:26;;;;;;;3.92;2.75;;;22.50;95.20;;;;;;5033572;28;20083;-57
2022/05/02 11:25:07;;;;;;;4.32;3.10;;;22.40;96.30;;;;;;5034298;28;20033;-58
2022/05/02 11:27:51;;;;;;;4.53;3.05;;;22.30;98.30;;;;;;5033811;28;20398;-58
2022/05/02 11:30:22;;;;;;;3.92;2.97;;;22.50;99.60;;;;;;5034334;28;20490;-59
2022/05/02 11:33:15;;;;;;;4.72;3.05;;;22.30;99.50;;;;;;5034206;28;20679;-57
2022/05/02 11:35:47;;;;;;;4.88;3.10;;;22.30;97.70;;;;;;5033779;28;20040;-58
2022/05/02 11:38:32;;;;;;;4.32;2.78;;;22.70;98.50;;;;;;5036347;28;20135;-57
2022/05/02 11:40:59;;;;;;;4.13;2.70;;;22.70;97.80;;;;;;5020142;28;20037;-59
2022/05/02 11:43:31;;;;;;;4.68;2.90;;;23.10;97.80;;;;;;5038489;28;20040;-59
2022/05/02 11:46:22;;;;;;;6.07;2.85;;;23.00;98.90;;;;;;5039484;28;20022;-58
2022/05/02 11:49:13;;;;;;;4.68;2.60;;;22.60;99.40;;;;;;5038506;28;20227;-58
2022/05/02 11:51:50;;;;;;;3.65;2.70;;;22.40;97.30;;;;;;5036277;28;20445;-58
2022/05/02 11:54:27;;;;;;;4.53;2.85;;;23.20;96.70;;;;;;5036256;28;20026;-58
2022/05/02 11:57:25;;;;;;;3.85;2.50;;;22.90;97.90;;;;;;5037991;28;20029;-58
2022/05/02 11:59:51;;;;;;;3.22;2.47;;;22.80;99.80;;;;;;5037813;28;20025;-59
2022/05/02 12:02:40;;;;;;;4.53;2.53;;;22.70;99.90;;;;;;5037337;28;20041;-58
2022/05/02 12:05:26;;;;;;;3.35;2.45;;;22.60;92.30;;;;;;5021713;28;20021;-58
2022/05/02 12:07:57;;;;;;;2.92;2.45;;;23.20;93.90;;;;;;5017941;28;20088;-58
2022/05/02 12:10:45;;;;;;;2.60;2.40;;;23.30;94.30;;;;;;5038598;28;20018;-58
2022/05/02 12:13:16;;;;;;;3.08;2.55;;;23.00;94.60;;;;;;5039081;28;20083;-58
2022/05/02 12:15:58;;;;;;;5.60;2.42;;;23.20;95.20;;;;;;5037823;28;20448;-59
2022/05/02 12:18:45;;;;;;;3.88;2.45;;;23.10;96.10;;;;;;5037561;28;20018;-59
2022/05/02 12:21:24;;;;;;;6.05;2.40;;;23.70;93.20;;;;;;5037039;28;20060;-58
2022/05/02 12:23:52;;;;;;;2.67;2.28;;;24.20;90.20;;;;;;5035953;28;20025;-59
2022/05/02 12:26:22;;;;;;;2.92;2.58;;;23.20;90.40;;;;;;5036701;28;20032;-58
2022/05/02 12:28:51;;;;;;;4.13;2.60;;;23.00;92.70;;;;;;5032346;28;20040;-57
2022/05/02 12:31:29;;;;;;;6.63;2.50;;;23.50;89.30;;;;;;5046128;28;20033;-59
2022/05/02 12:34:04;;;;;;;3.70;2.60;;;23.70;89.40;;;;;;5037959;28;20490;-59
2022/05/02 12:36:45;;;;;;;4.30;2.42;;;23.60;87.30;;;;;;5037233;28;20081;-59
2022/05/02 12:39:27;;;;;;;4.22;2.78;;;23.60;88.30;;;;;;5036986;28;20054;-58
2022/05/02 12:42:15;;;;;;;4.22;3.00;;;23.50;90.40;;;;;;5037528;28;20083;-58
2022/05/02 12:45:01;;;;;;;3.83;3.08;;;22.90;91.70;;;;;;5037005;28;20044;-58
2022/05/02 12:47:40;;;;;;;3.55;2.70;;;22.30;92.40;;;;;;5036422;28;20060;-59
2022/05/02 12:50:17;;;;;;;3.53;2.90;;;21.90;93.90;;;;;;5033543;28;20367;-57
2022/05/02 12:52:48;;;;;;;5.03;2.83;;;22.00;94.60;;;;;;5033271;28;20030;-59
2022/05/02 12:55:15;;;;;;;3.92;2.75;;;22.20;94.40;;;;;;5039090;28;20482;-60
2022/05/02 13:00:45;;;;;;;3.45;2.88;;;22.60;94.00;;;;;;5036922;28;20122;-59
2022/05/02 13:03:10;;;;;;;4.40;3.00;;;22.50;93.90;;;;;;5035020;28;20029;-59
2022/05/02 13:05:41;;;;;;;3.72;2.80;;;22.30;94.10;;;;;;5037034;28;20478;-59
2022/05/02 13:08:13;;;;;;;6.75;3.00;;;22.60;93.60;;;;;;5033062;28;20477;-59
2022/05/02 13:10:42;;;;;;;3.35;2.70;;;22.30;95.30;;;;;;5034081;28;20047;-58
2022/05/02 13:13:13;;;;;;;5.32;2.70;;;22.20;96.10;;;;;;5037182;28;20068;-59
2022/05/02 13:15:46;;;;;;;4.57;2.50;;;22.20;96.30;;;;;;5036521;28;20191;-59
2022/05/02 13:18:15;;;;;;;4.22;2.80;;;22.30;95.90;;;;;;5036576;28;20021;-59
2022/05/02 13:20:48;;;;;;;5.03;2.78;;;22.10;93.00;;;;;;5036236;28;20044;-60
2022/05/02 13:23:14;;;;;;;5.68;2.75;;;22.00;92.80;;;;;;5034932;28;20035;-59
2022/05/02 13:26:07;;;;;;;5.47;2.90;;;22.20;92.80;;;;;;5033453;28;20114;-59
2022/05/02 13:28:57;;;;;;;5.43;3.00;;;22.00;95.20;;;;;;5046542;28;20028;-59
2022/05/02 13:31:47;;;;;;;6.72;3.00;;;22.00;92.60;;;;;;5046018;28;20131;-59
2022/05/02 13:34:40;;;;;;;4.40;2.72;;;22.10;92.60;;;;;;5037438;28;20045;-60
2022/05/02 13:37:14;;;;;;;5.30;2.45;;;22.00;90.70;;;;;;5010164;28;20476;-59
2022/05/02 13:39:54;;;;;;;5.30;2.70;;;22.40;90.70;;;;;;5010820;28;20533;-59
2022/05/02 13:42:55;;;;;;;3.05;2.50;;;22.20;91.80;;;;;;5010888;28;20124;-59
2022/05/02 13:45:35;;;;;;;3.17;2.72;;;22.30;91.90;;;;;;4971700;28;20522;-59
2022/05/02 13:48:21;;;;;;;4.60;2.67;;;21.90;95.20;;;;;;4971149;28;20046;-59